Urmeyville, Indiana
Current Conditions -  °F | °C
As of 3:35 PM on Tuesday 25 Nov 2014 (Local Time) from K1II Reporting Station
Overcast Overcast  
Wind Chill: 27°   Ceiling: 2300
Heat Index: 34°   Visibility: 10mi
Dew Point: 28°   Wind: 8mph
Humidity: 81%   Direction: 320°NW
Pressure: 30.15"   Gusts: NA
Location:  39.4841°N, 86.0843°W
Report Text: K1II 252035Z AUTO 32007KT 10SM OVC023 01/M02 A3015 RMK AO2
Loading
Personal Weather Stations






























Interactive Weather Map New forecast layout! Learn more

10-Day Weather Forecast

Advertisements
Track Severe Weather on mobile